Time;durP1;ratioP1;P1;durP2;ratioP2;P2;SDS_P1;SDS_P2;PMS_P1;PMS_P2;Temp;Humidity;BMP_temperature;BMP_pressure;BME280_temperature;BME280_humidity;BME280_pressure;Samples;Min_cycle;Max_cycle;Signal;HPM_P1;HPM_P2
2023/04/10 00:00:34;;;;;;;;;;;;;;;18.54;62.03;99216.25;2087170;28;20014;-42
2023/04/10 00:01:35;;;;;;;;;;;;;;;18.56;62.22;99211.53;2087344;28;20006;-44
2023/04/10 00:02:37;;;;;;;;;;;;;;;18.56;61.91;99213.38;2088030;28;20386;-43
2023/04/10 00:03:38;;;;;;;;;;;;;;;18.53;62.20;99209.22;2085880;28;19924;-43
2023/04/10 00:04:40;;;;;;;;;;;;;;;18.52;61.84;99205.69;2085409;28;19963;-44
2023/04/10 00:05:41;;;;;;;;;;;;;;;18.52;61.72;99205.69;2086880;28;19990;-44
2023/04/10 00:06:42;;;;;;;;;;;;;;;18.54;62.36;99206.31;2086733;28;19929;-44
2023/04/10 00:07:42;;;;;;;;;;;;;;;18.52;61.93;99203.00;2084575;28;19986;-43
2023/04/10 00:08:44;;;;;;;;;;;;;;;18.51;61.95;99195.13;2084135;28;19932;-42
2023/04/10 00:09:44;;;;;;;;;;;;;;;18.51;62.10;99193.28;2089177;28;19940;-44
2023/04/10 00:10:46;;;;;;;;;;;;;;;18.50;61.92;99197.00;2087554;28;19929;-44
2023/04/10 00:11:46;;;;;;;;;;;;;;;18.51;62.21;99195.13;2086197;28;19925;-45
2023/04/10 00:12:48;;;;;;;;;;;;;;;18.50;62.35;99197.00;2088199;28;19933;-45
2023/04/10 00:13:48;;;;;;;;;;;;;;;18.52;61.78;99191.41;2087451;28;19951;-44
2023/04/10 00:14:49;;;;;;;;;;;;;;;18.50;62.01;99191.63;2082703;28;19975;-44
2023/04/10 00:15:50;;;;;;;;;;;;;;;18.48;62.53;99190.97;2085468;28;20573;-44
2023/04/10 00:16:51;;;;;;;;;;;;;;;18.51;62.73;99190.59;2085444;28;19986;-45
2023/04/10 00:17:54;;;;;;;;;;;;;;;18.52;63.00;99186.88;2085748;28;19925;-46
2023/04/10 00:18:56;;;;;;;;;;;;;;;18.50;62.92;99186.25;2085195;28;19969;-44
2023/04/10 00:19:58;;;;;;;;;;;;;;;18.50;62.82;99188.09;2083616;28;20005;-46
2023/04/10 00:20:59;;;;;;;;;;;;;;;18.49;62.61;99181.88;2087175;28;20443;-44
2023/04/10 00:22:00;;;;;;;;;;;;;;;18.50;63.05;99180.06;2087017;28;19928;-45
2023/04/10 00:23:01;;;;;;;;;;;;;;;18.50;62.75;99178.19;2087351;28;19955;-44
2023/04/10 00:24:02;;;;;;;;;;;;;;;18.50;62.73;99182.75;2086501;28;19925;-46
2023/04/10 00:25:05;;;;;;;;;;;;;;;18.49;62.97;99179.19;2085870;28;20966;-45
2023/04/10 00:26:05;;;;;;;;;;;;;;;18.46;63.06;99186.81;2086990;28;19928;-45
2023/04/10 00:27:07;;;;;;;;;;;;;;;18.45;62.82;99177.91;2080987;28;21132;-56
2023/04/10 00:28:07;;;;;;;;;;;;;;;18.46;62.60;99176.06;2085148;28;19944;-46
2023/04/10 00:29:09;;;;;;;;;;;;;;;18.44;63.14;99178.97;2081134;28;20001;-44
2023/04/10 00:30:09;;;;;;;;;;;;;;;18.47;62.58;99173.19;2081316;28;19966;-44
2023/04/10 00:31:11;;;;;;;;;;;;;;;18.45;63.33;99177.91;2086256;28;20329;-44
2023/04/10 00:32:11;;;;;;;;;;;;;;;18.43;62.58;99181.81;2087755;28;19932;-43
2023/04/10 00:33:13;;;;;;;;;;;;;;;18.42;63.07;99178.31;2087823;28;19982;-46
2023/04/10 00:34:15;;;;;;;;;;;;;;;18.42;62.93;99175.63;2087236;28;19925;-44
2023/04/10 00:35:16;;;;;;;;;;;;;;;18.42;62.86;99180.16;2086360;28;19978;-43
2023/04/10 00:36:17;;;;;;;;;;;;;;;18.43;62.78;99176.44;2086771;28;19929;-46
2023/04/10 00:37:18;;;;;;;;;;;;;;;18.42;63.23;99174.78;2087009;28;19964;-43
2023/04/10 00:38:19;;;;;;;;;;;;;;;18.41;62.94;99176.63;2086662;28;19937;-45
2023/04/10 00:39:20;;;;;;;;;;;;;;;18.42;62.77;99174.78;2082247;28;19994;-45
2023/04/10 00:40:21;;;;;;;;;;;;;;;18.40;62.85;99174.13;2085319;28;19925;-43
2023/04/10 00:41:23;;;;;;;;;;;;;;;18.39;62.85;99181.38;2080070;28;20062;-42
2023/04/10 00:42:24;;;;;;;;;;;;;;;18.40;63.35;99172.28;2087328;28;19925;-45
2023/04/10 00:43:26;;;;;;;;;;;;;;;18.41;63.03;99173.94;2086007;28;20020;-45
2023/04/10 00:44:26;;;;;;;;;;;;;;;18.42;62.90;99175.63;2086666;28;19933;-44
2023/04/10 00:45:28;;;;;;;;;;;;;;;18.41;63.13;99173.94;2087660;28;19977;-46
2023/04/10 00:46:29;;;;;;;;;;;;;;;18.40;63.46;99172.28;2088104;28;19932;-44
2023/04/10 00:47:31;;;;;;;;;;;;;;;18.37;63.09;99172.66;2086267;28;19925;-46
2023/04/10 00:48:32;;;;;;;;;;;;;;;18.37;63.06;99172.66;2085782;28;19986;-43
2023/04/10 00:49:35;;;;;;;;;;;;;;;18.37;63.52;99179.91;2086369;28;20428;-44
2023/04/10 00:50:36;;;;;;;;;;;;;;;18.36;63.36;99173.69;2088080;28;20011;-43
2023/04/10 00:51:38;;;;;;;;;;;;;;;18.35;63.11;99172.00;2083506;28;20428;-46
2023/04/10 00:52:38;;;;;;;;;;;;;;;18.36;62.62;99171.00;2079477;28;20330;-44
2023/04/10 00:53:40;;;;;;;;;;;;;;;18.37;63.32;99166.47;2084095;28;19925;-46
2023/04/10 00:54:40;;;;;;;;;;;;;;;18.35;63.60;99163.94;2084388;28;19933;-44
2023/04/10 00:55:42;;;;;;;;;;;;;;;18.36;62.92;99168.31;2078827;28;19947;-43
2023/04/10 00:56:43;;;;;;;;;;;;;;;18.36;63.03;99171.00;2081979;27;19932;-47
2023/04/10 00:57:46;;;;;;;;;;;;;;;18.36;63.35;99165.63;2081107;28;20011;-48
2023/04/10 00:58:46;;;;;;;;;;;;;;;18.38;63.09;99165.44;2079183;28;19932;-44
2023/04/10 00:59:49;;;;;;;;;;;;;;;18.36;62.81;99162.94;2079193;28;20031;-44
2023/04/10 01:00:50;;;;;;;;;;;;;;;18.36;63.15;99168.31;2079329;28;20481;-43
2023/04/10 01:01:51;;;;;;;;;;;;;;;18.39;63.06;99167.13;2083905;28;19928;-45
2023/04/10 01:02:53;;;;;;;;;;;;;;;18.36;63.57;99162.94;2085781;28;19932;-43
2023/04/10 01:03:54;;;;;;;;;;;;;;;18.37;63.72;99164.59;2084859;28;20039;-42
2023/04/10 01:04:56;;;;;;;;;;;;;;;18.39;63.33;99162.56;2086713;28;20537;-43
2023/04/10 01:06:03;;;;;;;;;;;;;;;18.37;63.49;99167.28;2081832;28;20399;-43
2023/04/10 01:07:06;;;;;;;;;;;;;;;18.38;63.79;99160.06;2083353;28;20393;-44
2023/04/10 01:08:12;;;;;;;;;;;;;;;18.38;63.74;99162.75;2081220;28;19939;-49
2023/04/10 01:09:16;;;;;;;;;;;;;;;18.36;63.51;99162.09;2084437;28;19932;-45
2023/04/10 01:10:20;;;;;;;;;;;;;;;18.36;63.03;99154.03;2079881;28;19937;-43
2023/04/10 01:11:26;;;;;;;;;;;;;;;18.36;62.88;99159.41;2083547;28;19967;-44
2023/04/10 01:12:35;;;;;;;;;;;;;;;18.35;62.94;99158.59;2081522;28;19993;-44
2023/04/10 01:13:40;;;;;;;;;;;;;;;18.37;62.95;99161.91;2085439;28;20445;-44
2023/04/10 01:14:46;;;;;;;;;;;;;;;18.34;63.36;99156.94;2080708;28;20068;-43
2023/04/10 01:15:48;;;;;;;;;;;;;;;18.36;63.48;99159.41;2086017;28;19993;-44
2023/04/10 01:16:53;;;;;;;;;;;;;;;18.35;63.82;99157.75;2085756;28;20020;-45
2023/04/10 01:17:56;;;;;;;;;;;;;;;18.35;63.55;99163.13;2072366;28;20760;-44
2023/04/10 01:19:00;;;;;;;;;;;;;;;18.34;63.48;99159.63;2085298;28;19940;-45
2023/04/10 01:20:05;;;;;;;;;;;;;;;18.34;63.57;99158.78;2082076;28;19965;-43
2023/04/10 01:21:08;;;;;;;;;;;;;;;18.34;63.95;99165.00;2082230;28;19936;-54
2023/04/10 01:22:12;;;;;;;;;;;;;;;18.32;63.42;99164.34;2084471;28;19928;-45
2023/04/10 01:23:23;;;;;;;;;;;;;;;18.32;63.51;99158.97;2083600;28;19940;-45
2023/04/10 01:24:34;;;;;;;;;;;;;;;18.34;63.74;99150.72;2082040;28;19933;-48
2023/04/10 01:25:40;;;;;;;;;;;;;;;18.32;63.36;99153.59;2081877;28;21695;-44
2023/04/10 01:26:48;;;;;;;;;;;;;;;18.30;63.91;99155.63;2084269;28;19981;-45
2023/04/10 01:27:58;;;;;;;;;;;;;;;18.29;63.57;99156.66;2085819;28;20528;-48
2023/04/10 01:29:03;;;;;;;;;;;;;;;18.29;63.87;99156.66;2084773;28;19971;-45
2023/04/10 01:30:06;;;;;;;;;;;;;;;18.30;63.41;99156.50;2083892;28;19957;-45
2023/04/10 01:31:09;;;;;;;;;;;;;;;18.29;63.15;99151.28;2085233;28;20035;-45
2023/04/10 01:32:12;;;;;;;;;;;;;;;18.30;63.59;99156.50;2086133;28;19935;-46
2023/04/10 01:33:15;;;;;;;;;;;;;;;18.29;63.11;99151.28;2084990;28;20535;-45
2023/04/10 01:34:18;;;;;;;;;;;;;;;18.29;63.66;99156.66;2087317;28;19929;-45
2023/04/10 01:35:20;;;;;;;;;;;;;;;18.28;63.77;99160.38;2085449;28;20292;-47
2023/04/10 01:36:25;;;;;;;;;;;;;;;18.28;63.19;99158.53;2083299;28;19986;-48
2023/04/10 01:37:28;;;;;;;;;;;;;;;18.28;63.36;99158.53;2086456;28;19994;-46
2023/04/10 01:38:30;;;;;;;;;;;;;;;18.27;63.42;99162.19;2080849;28;19982;-46
2023/04/10 01:39:35;;;;;;;;;;;;;;;18.27;63.00;99162.19;2087084;28;20337;-47
2023/04/10 01:40:38;;;;;;;;;;;;;;;18.25;62.99;99158.06;2084500;28;19952;-47
2023/04/10 01:41:40;;;;;;;;;;;;;;;18.26;63.97;99170.47;2086844;28;19925;-48
2023/04/10 01:42:44;;;;;;;;;;;;;;;18.24;63.29;99170.63;2087766;28;19959;-44
2023/04/10 01:43:47;;;;;;;;;;;;;;;18.24;63.32;99157.22;2085332;28;19933;-48
2023/04/10 01:44:52;;;;;;;;;;;;;;;18.24;63.64;99159.91;2076732;28;19972;-48
2023/04/10 01:45:53;;;;;;;;;;;;;;;18.24;63.04;99151.03;2080762;28;19974;-46
2023/04/10 01:46:55;;;;;;;;;;;;;;;18.23;63.55;99155.56;2085200;28;19936;-47
2023/04/10 01:47:55;;;;;;;;;;;;;;;18.23;63.05;99150.19;2088237;28;19932;-45
2023/04/10 01:48:58;;;;;;;;;;;;;;;18.22;63.15;99153.06;2080342;28;22482;-47
2023/04/10 01:50:00;;;;;;;;;;;;;;;18.23;63.89;99160.09;2088125;28;20294;-43
2023/04/10 01:51:03;;;;;;;;;;;;;;;18.21;63.26;99157.59;2086318;28;20011;-45
2023/04/10 01:52:05;;;;;;;;;;;;;;;18.21;63.24;99146.84;2086281;28;19924;-46
2023/04/10 01:53:07;;;;;;;;;;;;;;;18.22;63.56;99155.75;2079804;28;19937;-47
2023/04/10 01:54:08;;;;;;;;;;;;;;;18.21;63.58;99151.41;2076726;28;20551;-48
2023/04/10 01:55:09;;;;;;;;;;;;;;;18.22;63.19;99153.06;2078781;28;19931;-48
2023/04/10 01:56:11;;;;;;;;;;;;;;;18.22;63.33;99155.75;2085350;28;19928;-44
2023/04/10 01:57:14;;;;;;;;;;;;;;;18.22;63.15;99150.38;2081378;28;21199;-49
2023/04/10 01:58:14;;;;;;;;;;;;;;;18.21;63.46;99148.72;2086067;28;20307;-47
2023/04/10 01:59:16;;;;;;;;;;;;;;;18.20;63.46;99150.56;2082734;28;19935;-45
2023/04/10 02:00:18;;;;;;;;;;;;;;;18.21;63.35;99151.41;2080246;28;19928;-49
2023/04/10 02:01:19;;;;;;;;;;;;;;;18.22;63.41;99147.69;2081885;28;19978;-46
2023/04/10 02:02:20;;;;;;;;;;;;;;;18.21;63.50;99151.41;2084641;28;19998;-49
2023/04/10 02:03:21;;;;;;;;;;;;;;;18.20;63.24;99155.94;2083278;28;19925;-47
2023/04/10 02:04:22;;;;;;;;;;;;;;;18.21;63.38;99154.09;2084812;28;19975;-46
2023/04/10 02:05:26;;;;;;;;;;;;;;;18.21;63.43;99154.09;2085546;28;19932;-51
2023/04/10 02:06:31;;;;;;;;;;;;;;;18.18;63.80;99157.97;2084353;28;19937;-49
2023/04/10 02:07:36;;;;;;;;;;;;;;;18.19;63.53;99164.16;2085668;28;19936;-46
2023/04/10 02:08:39;;;;;;;;;;;;;;;18.18;63.53;99162.53;2085745;28;19970;-45
2023/04/10 02:09:45;;;;;;;;;;;;;;;18.18;63.78;99165.19;2084521;28;20379;-43
2023/04/10 02:10:51;;;;;;;;;;;;;;;18.17;63.68;99158.19;2086628;28;19936;-49
2023/04/10 02:11:55;;;;;;;;;;;;;;;18.16;63.91;99161.88;2084702;28;19925;-48
2023/04/10 02:12:58;;;;;;;;;;;;;;;18.17;63.90;99164.38;2080645;28;19932;-50
2023/04/10 02:14:02;;;;;;;;;;;;;;;18.16;63.96;99165.38;2079899;28;19959;-49
2023/04/10 02:15:05;;;;;;;;;;;;;;;18.16;63.99;99159.19;2080486;28;19979;-46
2023/04/10 02:16:08;;;;;;;;;;;;;;;18.16;64.06;99164.56;2083129;28;20043;-48
2023/04/10 02:17:12;;;;;;;;;;;;;;;18.17;63.74;99155.50;2078238;28;20438;-46
2023/04/10 02:18:15;;;;;;;;;;;;;;;18.18;63.89;99162.53;2082838;28;19933;-46
2023/04/10 02:19:17;;;;;;;;;;;;;;;18.15;64.04;99157.53;2082237;28;20539;-46
2023/04/10 02:20:18;;;;;;;;;;;;;;;18.14;63.18;99147.81;2080502;28;19935;-47
2023/04/10 02:21:19;;;;;;;;;;;;;;;18.14;63.60;99150.50;2083342;28;19928;-51
2023/04/10 02:22:21;;;;;;;;;;;;;;;18.13;63.40;99152.34;2083331;28;19989;-45
2023/04/10 02:23:21;;;;;;;;;;;;;;;18.14;63.39;99150.50;2088096;28;20020;-47
2023/04/10 02:24:23;;;;;;;;;;;;;;;18.12;63.99;99145.31;2084394;28;19939;-48
2023/04/10 02:25:23;;;;;;;;;;;;;;;18.14;63.55;99150.50;2082431;28;19925;-50
2023/04/10 02:26:25;;;;;;;;;;;;;;;18.12;63.92;99150.69;2088128;28;19940;-44
2023/04/10 02:27:26;;;;;;;;;;;;;;;18.13;63.84;99154.19;2085560;28;19978;-51
2023/04/10 02:28:27;;;;;;;;;;;;;;;18.11;63.33;99153.53;2085249;28;20255;-45
2023/04/10 02:29:28;;;;;;;;;;;;;;;18.11;63.43;99154.41;2088010;28;19941;-50
2023/04/10 02:30:29;;;;;;;;;;;;;;;18.11;64.10;99157.06;2083256;28;19998;-50
2023/04/10 02:31:31;;;;;;;;;;;;;;;18.12;64.30;99153.38;2086605;28;19936;-47
2023/04/10 02:32:33;;;;;;;;;;;;;;;18.11;63.97;99156.22;2087920;28;20582;-49
2023/04/10 02:33:33;;;;;;;;;;;;;;;18.12;63.67;99149.84;2079166;28;19951;-50
2023/04/10 02:34:35;;;;;;;;;;;;;;;18.11;63.98;99156.22;2079926;28;19957;-47
2023/04/10 02:35:35;;;;;;;;;;;;;;;18.11;63.48;99156.22;2080251;28;19974;-49
2023/04/10 02:36:37;;;;;;;;;;;;;;;18.11;63.62;99151.72;2082613;28;19939;-45
2023/04/10 02:37:37;;;;;;;;;;;;;;;18.09;63.82;99154.56;2080611;28;20394;-49
2023/04/10 02:38:39;;;;;;;;;;;;;;;18.09;64.07;99154.56;2082670;28;19925;-49
2023/04/10 02:39:40;;;;;;;;;;;;;;;18.09;64.14;99154.56;2085142;28;19925;-48
2023/04/10 02:40:42;;;;;;;;;;;;;;;18.09;63.75;99143.84;2087064;28;19924;-49
2023/04/10 02:41:42;;;;;;;;;;;;;;;18.09;63.44;99151.06;2088727;28;20022;-50
2023/04/10 02:42:43;;;;;;;;;;;;;;;18.08;63.80;99147.53;2088108;28;19994;-48
2023/04/10 02:43:44;;;;;;;;;;;;;;;18.08;63.59;99147.53;2087397;28;20112;-46
2023/04/10 02:44:45;;;;;;;;;;;;;;;18.07;63.94;99151.22;2083769;28;20104;-45
2023/04/10 02:45:46;;;;;;;;;;;;;;;18.08;63.66;99142.19;2082198;28;20460;-44
2023/04/10 02:46:49;;;;;;;;;;;;;;;18.09;63.63;99151.88;2083599;28;20023;-45
2023/04/10 02:47:49;;;;;;;;;;;;;;;18.08;63.85;99146.72;2081310;28;20345;-44
2023/04/10 02:48:51;;;;;;;;;;;;;;;18.07;63.95;99151.22;2081353;28;19933;-44
2023/04/10 02:49:52;;;;;;;;;;;;;;;18.07;64.09;99151.22;2082874;28;21104;-45
2023/04/10 02:50:55;;;;;;;;;;;;;;;18.06;63.73;99154.13;2084266;28;19928;-46
2023/04/10 02:51:56;;;;;;;;;;;;;;;18.07;63.46;99150.41;2084125;28;20013;-45
2023/04/10 02:52:57;;;;;;;;;;;;;;;18.06;64.46;99151.44;2081283;28;20095;-44
2023/04/10 02:53:58;;;;;;;;;;;;;;;18.07;64.01;99145.84;2083284;28;19929;-45
2023/04/10 02:54:59;;;;;;;;;;;;;;;18.06;63.98;99143.38;2086292;28;19936;-46
2023/04/10 02:56:01;;;;;;;;;;;;;;;18.05;64.19;99150.59;2083938;28;19924;-49
2023/04/10 02:57:03;;;;;;;;;;;;;;;18.04;64.38;99146.25;2087114;28;19967;-50
2023/04/10 02:58:04;;;;;;;;;;;;;;;18.05;63.77;99147.94;2088103;28;19933;-45
2023/04/10 02:59:05;;;;;;;;;;;;;;;18.05;63.58;99145.25;2087313;28;20427;-50
2023/04/10 03:00:07;;;;;;;;;;;;;;;18.05;64.39;99152.44;2087967;28;20051;-48
2023/04/10 03:01:08;;;;;;;;;;;;;;;18.03;64.12;99152.63;2087741;28;19928;-47
2023/04/10 03:02:10;;;;;;;;;;;;;;;18.03;64.50;99152.63;2088606;28;20387;-53
2023/04/10 03:03:11;;;;;;;;;;;;;;;18.02;63.43;99153.63;2089861;28;19928;-48
2023/04/10 03:04:12;;;;;;;;;;;;;;;18.04;64.20;99148.91;2080940;28;20624;-50
2023/04/10 03:05:13;;;;;;;;;;;;;;;18.04;63.79;99151.59;2087623;28;20066;-44
2023/04/10 03:06:14;;;;;;;;;;;;;;;18.04;64.23;99146.25;2083244;28;19973;-47
2023/04/10 03:07:15;;;;;;;;;;;;;;;18.04;63.77;99151.59;2084494;28;20455;-45
2023/04/10 03:08:16;;;;;;;;;;;;;;;18.05;64.04;99152.44;2083004;28;19940;-49
2023/04/10 03:09:17;;;;;;;;;;;;;;;18.03;63.62;99154.50;2084193;28;20302;-47
2023/04/10 03:10:18;;;;;;;;;;;;;;;18.02;63.81;99158.19;2086628;28;19974;-52
2023/04/10 03:11:19;;;;;;;;;;;;;;;18.01;64.19;99157.34;2085045;28;19932;-46
2023/04/10 03:12:20;;;;;;;;;;;;;;;18.00;64.33;99149.50;2082637;28;20051;-50
2023/04/10 03:13:22;;;;;;;;;;;;;;;17.99;64.02;99151.34;2082287;28;19936;-46
2023/04/10 03:14:23;;;;;;;;;;;;;;;18.00;64.21;99152.19;2083191;28;19940;-47
2023/04/10 03:15:24;;;;;;;;;;;;;;;18.00;63.86;99153.00;2083142;28;20319;-52
2023/04/10 03:16:25;;;;;;;;;;;;;;;17.99;64.01;99148.66;2082285;28;19932;-44
2023/04/10 03:17:28;;;;;;;;;;;;;;;17.98;64.31;99152.38;2087144;28;19933;-47
2023/04/10 03:18:30;;;;;;;;;;;;;;;17.97;64.02;99145.34;2077253;28;20574;-49
2023/04/10 03:19:32;;;;;;;;;;;;;;;17.98;64.13;99148.84;2082528;28;19924;-49
2023/04/10 03:20:32;;;;;;;;;;;;;;;17.97;63.93;99148.03;2080178;28;19936;-49
2023/04/10 03:21:34;;;;;;;;;;;;;;;17.98;64.04;99149.69;2085788;28;19928;-46
2023/04/10 03:22:35;;;;;;;;;;;;;;;17.98;63.78;99152.38;2087741;28;19928;-45
2023/04/10 03:23:36;;;;;;;;;;;;;;;17.98;63.75;99149.69;2086317;28;19925;-46
2023/04/10 03:24:37;;;;;;;;;;;;;;;17.96;63.94;99149.03;2086113;28;20117;-50
2023/04/10 03:25:38;;;;;;;;;;;;;;;17.96;63.63;99151.72;2084245;28;20333;-47
2023/04/10 03:26:39;;;;;;;;;;;;;;;17.98;63.62;99151.53;2087929;28;19928;-50
2023/04/10 03:27:40;;;;;;;;;;;;;;;17.98;63.30;99148.84;2085016;28;20326;-47
2023/04/10 03:28:40;;;;;;;;;;;;;;;17.97;64.05;99156.06;2083962;28;19937;-46
2023/04/10 03:29:42;;;;;;;;;;;;;;;17.97;63.52;99150.72;2084942;28;20402;-48
2023/04/10 03:30:43;;;;;;;;;;;;;;;17.97;63.80;99145.34;2078629;28;20027;-51
2023/04/10 03:31:44;;;;;;;;;;;;;;;17.97;63.61;99153.41;2083347;28;20567;-46
2023/04/10 03:32:46;;;;;;;;;;;;;;;17.97;63.62;99156.06;2076861;28;19978;-43
2023/04/10 03:33:48;;;;;;;;;;;;;;;18.00;63.79;99155.69;2081760;28;19928;-48
2023/04/10 03:34:48;;;;;;;;;;;;;;;18.02;63.48;99160.88;2076812;28;20019;-48
2023/04/10 03:35:50;;;;;;;;;;;;;;;18.03;63.35;99158.00;2084073;28;19951;-46
2023/04/10 03:36:51;;;;;;;;;;;;;;;18.02;63.49;99150.97;2081434;28;19932;-51
2023/04/10 03:37:51;;;;;;;;;;;;;;;18.04;63.47;99151.59;2081691;28;20028;-47
2023/04/10 03:38:53;;;;;;;;;;;;;;;18.08;63.41;99157.47;2080724;28;21170;-47
2023/04/10 03:39:53;;;;;;;;;;;;;;;18.12;63.71;99158.72;2081269;28;19928;-50
2023/04/10 03:40:55;;;;;;;;;;;;;;;18.17;63.59;99161.69;2085384;28;19924;-47
2023/04/10 03:41:56;;;;;;;;;;;;;;;18.25;63.28;99160.75;2084956;28;21721;-46
2023/04/10 03:42:57;;;;;;;;;;;;;;;18.31;63.33;99162.69;2078485;28;20417;-49
2023/04/10 03:43:59;;;;;;;;;;;;;;;18.36;63.11;99160.28;2078995;28;21520;-51
2023/04/10 03:45:03;;;;;;;;;;;;;;;18.40;63.29;99166.91;2076638;28;20054;-51
2023/04/10 03:46:03;;;;;;;;;;;;;;;18.43;63.27;99165.69;2082351;28;19928;-45
2023/04/10 03:47:05;;;;;;;;;;;;;;;18.51;63.11;99166.41;2083056;28;19928;-50
2023/04/10 03:48:07;;;;;;;;;;;;;;;18.56;62.74;99163.16;2084564;28;19980;-52
2023/04/10 03:49:08;;;;;;;;;;;;;;;18.61;62.62;99167.94;2073506;28;19929;-46
2023/04/10 03:50:09;;;;;;;;;;;;;;;18.64;62.61;99171.09;2082677;28;20077;-52
2023/04/10 03:51:11;;;;;;;;;;;;;;;18.71;62.76;99168.47;2078991;28;20006;-51
2023/04/10 03:52:11;;;;;;;;;;;;;;;18.78;62.73;99165.88;2084741;28;19924;-50
2023/04/10 03:53:12;;;;;;;;;;;;;;;18.81;62.29;99174.41;2083372;28;19994;-44
2023/04/10 03:54:13;;;;;;;;;;;;;;;18.85;62.39;99170.31;2085533;28;19986;-47
2023/04/10 03:55:17;;;;;;;;;;;;;;;18.89;62.07;99171.59;2082468;28;21003;-46
2023/04/10 03:56:18;;;;;;;;;;;;;;;18.94;62.50;99177.22;2085015;28;19924;-44
2023/04/10 03:57:20;;;;;;;;;;;;;;;18.96;62.15;99175.16;2082612;28;19938;-45
2023/04/10 03:58:20;;;;;;;;;;;;;;;18.97;62.06;99168.78;2078057;28;19929;-45
2023/04/10 03:59:21;;;;;;;;;;;;;;;19.01;62.41;99181.84;2085673;28;19933;-50
2023/04/10 04:00:23;;;;;;;;;;;;;;;19.00;62.42;99172.94;2082897;28;20013;-47
2023/04/10 04:01:25;;;;;;;;;;;;;;;19.03;62.36;99177.94;2078646;28;19932;-47
2023/04/10 04:02:25;;;;;;;;;;;;;;;19.06;62.19;99176.72;2081876;28;20427;-49
2023/04/10 04:03:28;;;;;;;;;;;;;;;19.06;62.61;99179.41;2085640;28;19937;-45
2023/04/10 04:04:30;;;;;;;;;;;;;;;19.10;62.27;99177.97;2082269;28;19925;-46
2023/04/10 04:05:30;;;;;;;;;;;;;;;19.12;62.01;99184.81;2080017;28;20523;-45
2023/04/10 04:06:32;;;;;;;;;;;;;;;19.11;62.17;99177.78;2083170;28;19935;-45
2023/04/10 04:07:32;;;;;;;;;;;;;;;19.15;62.41;99186.31;2075890;28;19941;-46
2023/04/10 04:08:35;;;;;;;;;;;;;;;19.16;62.07;99182.56;2080492;28;19993;-44
2023/04/10 04:09:35;;;;;;;;;;;;;;;19.19;62.04;99179.50;2080735;28;19948;-46
2023/04/10 04:10:36;;;;;;;;;;;;;;;19.19;61.86;99179.50;2078912;28;19924;-45
2023/04/10 04:11:37;;;;;;;;;;;;;;;19.17;62.21;99178.88;2078978;28;19925;-45
2023/04/10 04:12:38;;;;;;;;;;;;;;;19.18;62.50;99181.34;2081886;28;19936;-44
2023/04/10 04:13:39;;;;;;;;;;;;;;;19.22;61.87;99187.16;2079876;28;19937;-45
2023/04/10 04:14:42;;;;;;;;;;;;;;;19.25;61.96;99180.56;2078945;28;19928;-45
2023/04/10 04:15:42;;;;;;;;;;;;;;;19.24;62.07;99189.69;2083417;28;19929;-45
2023/04/10 04:16:43;;;;;;;;;;;;;;;19.22;62.13;99183.66;2080650;28;19925;-44
2023/04/10 04:17:45;;;;;;;;;;;;;;;19.23;62.21;99183.47;2076153;28;20508;-44
2023/04/10 04:18:47;;;;;;;;;;;;;;;19.25;62.04;99185.94;2079578;28;19991;-43
2023/04/10 04:19:48;;;;;;;;;;;;;;;19.25;61.85;99192.19;2080417;28;19986;-43
2023/04/10 04:20:49;;;;;;;;;;;;;;;19.24;62.40;99190.50;2082676;28;19928;-44
2023/04/10 04:21:50;;;;;;;;;;;;;;;19.26;62.38;99193.84;2084955;28;20385;-45
2023/04/10 04:22:51;;;;;;;;;;;;;;;19.28;62.21;99188.25;2085578;28;19936;-44
2023/04/10 04:23:52;;;;;;;;;;;;;;;19.28;62.02;99189.09;2085420;28;19928;-44
2023/04/10 04:24:53;;;;;;;;;;;;;;;19.28;62.38;99193.63;2085214;28;19933;-43
2023/04/10 04:25:55;;;;;;;;;;;;;;;19.30;62.14;99191.59;2086255;28;19929;-44
2023/04/10 04:26:56;;;;;;;;;;;;;;;19.28;61.93;99186.41;2086168;28;19924;-43
2023/04/10 04:27:56;;;;;;;;;;;;;;;19.29;62.04;99193.44;2087050;28;19932;-44
2023/04/10 04:28:58;;;;;;;;;;;;;;;19.30;62.34;99205.84;2081873;28;20043;-42
2023/04/10 04:29:58;;;;;;;;;;;;;;;19.32;61.79;99193.06;2082890;28;20398;-43
2023/04/10 04:31:01;;;;;;;;;;;;;;;19.34;62.12;99201.78;2084574;28;19929;-44
2023/04/10 04:32:01;;;;;;;;;;;;;;;19.33;61.80;99197.41;2081375;28;19932;-45
2023/04/10 04:33:03;;;;;;;;;;;;;;;19.32;62.14;99198.44;2088191;28;19977;-43
2023/04/10 04:34:05;;;;;;;;;;;;;;;19.35;62.20;99198.03;2079779;28;19933;-44
2023/04/10 04:35:07;;;;;;;;;;;;;;;19.33;61.96;99194.72;2084461;28;19977;-44
2023/04/10 04:36:07;;;;;;;;;;;;;;;19.35;61.91;99205.28;2077719;28;19936;-46
2023/04/10 04:37:09;;;;;;;;;;;;;;;19.34;62.16;99207.16;2083073;28;19929;-45
2023/04/10 04:38:09;;;;;;;;;;;;;;;19.34;61.96;99201.78;2081921;28;19929;-45
2023/04/10 04:39:11;;;;;;;;;;;;;;;19.35;61.86;99203.41;2083263;28;19981;-45
2023/04/10 04:40:11;;;;;;;;;;;;;;;19.36;61.82;99206.94;2084907;28;19928;-44
2023/04/10 04:41:14;;;;;;;;;;;;;;;19.35;61.71;99206.13;2080627;28;20010;-44
2023/04/10 04:42:15;;;;;;;;;;;;;;;19.35;61.73;99206.13;2085828;28;20081;-44
2023/04/10 04:43:17;;;;;;;;;;;;;;;19.37;61.93;99212.13;2086805;28;20035;-43
2023/04/10 04:44:17;;;;;;;;;;;;;;;19.35;62.07;99213.34;2086333;28;19929;-43
2023/04/10 04:45:20;;;;;;;;;;;;;;;19.36;61.96;99215.00;2082457;28;19928;-46
2023/04/10 04:46:21;;;;;;;;;;;;;;;19.36;62.05;99215.00;2079094;28;21312;-43
2023/04/10 04:47:23;;;;;;;;;;;;;;;19.34;62.27;99212.53;2083559;28;20931;-44
2023/04/10 04:48:23;;;;;;;;;;;;;;;19.34;61.99;99212.53;2083157;28;19932;-44
2023/04/10 04:49:26;;;;;;;;;;;;;;;19.36;62.03;99210.47;2085969;28;20019;-43
2023/04/10 04:50:27;;;;;;;;;;;;;;;19.37;62.19;99211.31;2088496;28;20042;-45
2023/04/10 04:51:28;;;;;;;;;;;;;;;19.35;61.78;99208.81;2081971;28;21661;-46
2023/04/10 04:52:29;;;;;;;;;;;;;;;19.37;62.17;99208.63;2084740;28;19938;-45
2023/04/10 04:53:30;;;;;;;;;;;;;;;19.36;62.05;99217.69;2078546;28;20681;-44
2023/04/10 04:54:30;;;;;;;;;;;;;;;19.37;62.08;99217.50;2077898;28;19936;-46
2023/04/10 04:55:32;;;;;;;;;;;;;;;19.37;61.93;99212.13;2083443;28;19928;-45
2023/04/10 04:56:32;;;;;;;;;;;;;;;19.37;61.89;99211.31;2083680;28;20021;-45
2023/04/10 04:57:34;;;;;;;;;;;;;;;19.38;62.28;99204.91;2085897;28;19974;-45
2023/04/10 04:58:34;;;;;;;;;;;;;;;19.38;61.96;99210.28;2082234;28;19947;-45
2023/04/10 04:59:37;;;;;;;;;;;;;;;19.38;61.96;99216.47;2080338;28;20018;-44
2023/04/10 05:00:37;;;;;;;;;;;;;;;19.40;61.80;99216.31;2082598;28;20411;-45
2023/04/10 05:01:38;;;;;;;;;;;;;;;19.38;61.49;99216.47;2081889;28;19935;-45
2023/04/10 05:02:39;;;;;;;;;;;;;;;19.39;61.58;99214.66;2085820;28;19925;-44
2023/04/10 05:03:41;;;;;;;;;;;;;;;19.39;61.52;99209.28;2077130;28;21234;-44
2023/04/10 05:04:42;;;;;;;;;;;;;;;19.38;61.75;99208.41;2081416;28;19978;-45
2023/04/10 05:05:44;;;;;;;;;;;;;;;19.38;61.86;99213.78;2078161;28;20016;-46
2023/04/10 05:06:45;;;;;;;;;;;;;;;19.38;61.23;99215.66;2083389;28;20375;-44
2023/04/10 05:07:46;;;;;;;;;;;;;;;19.37;61.29;99212.13;2083370;28;20047;-45
2023/04/10 05:08:48;;;;;;;;;;;;;;;19.39;61.53;99212.78;2084431;28;19971;-46
2023/04/10 05:09:48;;;;;;;;;;;;;;;19.38;61.84;99219.16;2080493;28;19928;-44
2023/04/10 05:10:49;;;;;;;;;;;;;;;19.38;61.85;99215.66;2081796;28;19969;-45
2023/04/10 05:11:50;;;;;;;;;;;;;;;19.39;61.81;99220.03;2084786;28;19925;-44
2023/04/10 05:12:52;;;;;;;;;;;;;;;19.38;61.81;99212.97;2082889;28;19978;-45
2023/04/10 05:13:52;;;;;;;;;;;;;;;19.39;61.47;99214.66;2079061;28;19929;-46
2023/04/10 05:14:54;;;;;;;;;;;;;;;19.38;61.31;99218.34;2078881;28;19983;-45
2023/04/10 05:15:54;;;;;;;;;;;;;;;19.40;61.61;99219.00;2079659;28;20367;-45
2023/04/10 05:16:55;;;;;;;;;;;;;;;19.39;61.64;99222.72;2079783;28;19939;-45
2023/04/10 05:17:56;;;;;;;;;;;;;;;19.38;61.73;99218.34;2080305;28;19933;-46
2023/04/10 05:18:57;;;;;;;;;;;;;;;19.38;61.56;99218.34;2079839;28;19937;-44
2023/04/10 05:19:59;;;;;;;;;;;;;;;19.37;61.33;99219.38;2081941;28;19971;-45
2023/04/10 05:21:01;;;;;;;;;;;;;;;19.36;61.69;99236.53;2081816;28;19928;-45
2023/04/10 05:22:01;;;;;;;;;;;;;;;19.34;61.46;99228.66;2083891;28;19989;-44